createdAt,value
2022-10-22T19:24:07.201Z,12.52
2022-10-22T19:26:33.794Z,18.70
2022-10-22T19:29:00.751Z,16.15
2022-10-22T19:31:29.936Z,18.05
2022-10-22T19:33:57.177Z,12.15
2022-10-22T19:36:25.205Z,15.38
2022-10-22T19:38:51.802Z,13.23
2022-10-22T19:41:19.823Z,11.85
2022-10-22T19:43:49.367Z,12.10
2022-10-22T19:46:16.372Z,12.93
2022-10-22T19:48:42.958Z,14.75
2022-10-22T19:51:11.254Z,10.68
2022-10-22T19:53:38.712Z,11.10
2022-10-22T19:56:07.039Z,12.18
2022-10-22T19:58:33.753Z,11.45
2022-10-22T20:01:11.441Z,10.50
2022-10-22T20:03:38.870Z,12.95
2022-10-22T20:06:07.627Z,9.07
2022-10-22T20:08:38.005Z,10.85
2022-10-22T20:11:10.687Z,13.93
2022-10-22T20:13:37.620Z,13.82
2022-10-22T20:16:05.101Z,15.93
2022-10-22T20:18:34.011Z,13.65
2022-10-22T20:21:07.670Z,13.65
2022-10-22T20:23:34.354Z,14.15
2022-10-22T20:26:00.902Z,12.27
2022-10-22T20:28:27.434Z,11.18
2022-10-22T20:30:53.941Z,12.88
2022-10-22T20:33:20.506Z,14.35
2022-10-22T20:35:47.066Z,14.55
2022-10-22T20:38:14.701Z,18.00
2022-10-22T20:40:41.469Z,16.30
2022-10-22T20:43:10.539Z,12.23
2022-10-22T20:45:38.846Z,14.15
2022-10-22T20:48:06.008Z,18.55
2022-10-22T20:50:32.830Z,14.38
2022-10-22T20:52:59.721Z,14.80
2022-10-22T20:55:26.555Z,14.93
2022-10-22T20:57:53.025Z,13.55
2022-10-22T21:00:19.584Z,15.90
2022-10-22T21:02:46.193Z,11.45
2022-10-22T21:05:12.686Z,15.35
2022-10-22T21:07:39.391Z,17.23
2022-10-22T21:10:06.493Z,13.63
2022-10-22T21:12:32.989Z,15.80
2022-10-22T21:14:59.548Z,13.75
2022-10-22T21:17:26.033Z,16.50
2022-10-22T21:19:52.554Z,16.70
2022-10-22T21:22:19.059Z,14.68
2022-10-22T21:24:45.543Z,15.45
2022-10-22T21:27:12.073Z,14.88
2022-10-22T21:29:38.713Z,11.18
2022-10-22T21:32:05.389Z,15.10
2022-10-22T21:34:36.727Z,12.63
2022-10-22T21:37:05.458Z,14.35
2022-10-22T21:39:31.959Z,13.77
2022-10-22T21:41:58.466Z,16.20
2022-10-22T21:44:24.987Z,12.38
2022-10-22T21:46:51.481Z,13.63
2022-10-22T21:49:18.124Z,12.23
2022-10-22T21:51:44.724Z,12.35
2022-10-22T21:54:12.541Z,12.15
2022-10-22T21:56:39.434Z,14.85
2022-10-22T21:59:06.593Z,14.82
2022-10-22T22:01:33.305Z,13.15
2022-10-22T22:03:59.898Z,11.70
2022-10-22T22:06:30.804Z,14.07
2022-10-22T22:08:59.583Z,12.05
2022-10-22T22:11:27.942Z,12.20
2022-10-22T22:13:55.537Z,12.50
2022-10-22T22:16:27.275Z,16.70
2022-10-22T22:18:56.800Z,12.43
2022-10-22T22:21:23.372Z,15.32
2022-10-22T22:23:50.731Z,10.48
2022-10-22T22:26:25.273Z,11.43
2022-10-22T22:28:55.387Z,13.52
2022-10-22T22:31:25.332Z,11.60
2022-10-22T22:33:57.642Z,9.43
2022-10-22T22:36:24.109Z,9.18
2022-10-22T22:38:55.182Z,8.32
2022-10-22T22:41:21.797Z,11.90
2022-10-22T22:43:48.282Z,11.88
2022-10-22T22:46:14.830Z,11.52
2022-10-22T22:48:41.323Z,11.05
2022-10-22T22:51:08.054Z,11.27
2022-10-22T22:53:34.777Z,10.10
2022-10-22T22:56:11.305Z,12.05
2022-10-22T22:58:40.411Z,10.30
2022-10-22T23:01:20.517Z,7.70
2022-10-22T23:03:52.274Z,10.43
2022-10-22T23:06:18.767Z,10.80
2022-10-22T23:08:49.453Z,12.93
2022-10-22T23:11:16.041Z,10.50
2022-10-22T23:13:42.952Z,7.60
2022-10-22T23:16:13.974Z,7.20
2022-10-22T23:18:40.787Z,10.48
2022-10-22T23:21:12.321Z,9.77
2022-10-22T23:23:38.804Z,10.60
2022-10-22T23:26:05.397Z,10.95
2022-10-22T23:28:31.915Z,8.15
2022-10-22T23:30:58.533Z,8.95
2022-10-22T23:33:24.993Z,9.82
2022-10-22T23:35:51.480Z,10.60
2022-10-22T23:38:17.957Z,8.93
2022-10-22T23:40:44.483Z,7.90
2022-10-22T23:43:11.009Z,9.00
2022-10-22T23:45:37.536Z,7.47
2022-10-22T23:48:04.196Z,7.82
2022-10-22T23:50:30.724Z,10.30
2022-10-22T23:52:57.220Z,8.25
2022-10-22T23:55:23.722Z,11.32
2022-10-22T23:57:50.248Z,8.45
